Time;durP1;ratioP1;P1;durP2;ratioP2;P2;SDS_P1;SDS_P2;PMS_P1;PMS_P2;Temp;Humidity;BMP_temperature;BMP_pressure;BME280_temperature;BME280_humidity;BME280_pressure;Samples;Min_cycle;Max_cycle;Signal;HPM_P1;HPM_P2
2022/10/08 00:01:27;;;;;;;6.10;5.50;;;;;;;13.08;75.76;100116.16;5133029;27;20218;-53
2022/10/08 00:03:56;;;;;;;6.03;4.80;;;;;;;13.02;76.56;100111.09;5132868;27;20202;-57
2022/10/08 00:06:25;;;;;;;7.57;5.40;;;;;;;13.04;76.76;100114.53;5133193;27;20270;-53
2022/10/08 00:08:53;;;;;;;7.00;4.50;;;;;;;13.04;76.66;100106.72;5132675;27;20258;-53
2022/10/08 00:11:22;;;;;;;7.07;5.23;;;;;;;13.09;76.71;100103.97;5132828;27;20288;-53
2022/10/08 00:13:50;;;;;;;7.67;4.43;;;;;;;13.18;76.44;100108.09;5132843;27;20220;-53
2022/10/08 00:16:19;;;;;;;7.07;4.33;;;;;;;13.24;75.95;100097.47;5131465;27;20285;-52
2022/10/08 00:18:47;;;;;;;4.57;4.17;;;;;;;13.15;76.13;100082.09;5133149;27;20197;-56
2022/10/08 00:21:17;;;;;;;5.60;4.67;;;;;;;13.24;76.20;100094.84;5132490;27;20232;-53
2022/10/08 00:23:46;;;;;;;7.30;4.70;;;;;;;13.26;76.53;100082.63;5132627;27;20190;-54
2022/10/08 00:26:14;;;;;;;4.90;4.43;;;;;;;13.25;76.73;100081.78;5133002;27;20552;-52
2022/10/08 00:28:43;;;;;;;6.43;4.33;;;;;;;13.14;77.25;100081.25;5132417;27;20234;-54
2022/10/08 00:31:13;;;;;;;5.10;4.70;;;;;;;12.83;78.07;100046.56;5132467;27;20186;-53
2022/10/08 00:33:40;;;;;;;5.93;4.20;;;;;;;13.00;78.62;100084.22;5132741;27;20205;-58
2022/10/08 00:36:09;;;;;;;6.43;5.23;;;;;;;13.01;78.90;100085.09;5132387;27;20196;-58
2022/10/08 00:38:38;;;;;;;8.43;4.53;;;;;;;13.00;79.39;100083.38;5132399;27;20568;-58
2022/10/08 00:41:07;;;;;;;5.53;4.93;;;;;;;13.00;79.73;100089.44;5132010;27;20227;-58
2022/10/08 00:43:39;;;;;;;6.03;4.97;;;;;;;12.91;80.17;100084.50;5131803;27;20229;-52
2022/10/08 00:46:15;;;;;;;7.17;5.40;;;;;;;12.88;80.46;100084.59;5129849;27;20186;-53
2022/10/08 00:48:43;;;;;;;5.93;4.40;;;;;;;12.96;80.27;100084.38;5129586;27;20193;-52
2022/10/08 00:51:10;;;;;;;8.43;5.33;;;;;;;12.81;81.05;100088.28;5131693;27;20194;-52
2022/10/08 00:53:39;;;;;;;6.27;4.93;;;;;;;12.79;81.10;100084.88;5132113;27;20194;-53
2022/10/08 00:56:07;;;;;;;7.37;4.40;;;;;;;12.69;81.74;100080.81;5132174;27;20280;-54
2022/10/08 00:58:35;;;;;;;5.13;4.70;;;;;;;12.64;82.00;100085.31;5132282;27;20216;-53
2022/10/08 01:01:03;;;;;;;7.20;5.67;;;;;;;12.56;82.55;100079.44;5131657;27;20222;-58
2022/10/08 01:03:30;;;;;;;7.43;4.83;;;;;;;12.57;82.87;100068.13;5131885;27;20204;-58
2022/10/08 01:06:05;;;;;;;6.00;5.03;;;;;;;12.58;82.89;100064.63;5131596;27;20289;-58
2022/10/08 01:08:37;;;;;;;6.53;5.20;;;;;;;12.51;83.12;100057.91;5131717;27;20204;-57
2022/10/08 01:11:15;;;;;;;5.33;4.93;;;;;;;12.46;84.00;100060.63;5131602;27;20190;-57
2022/10/08 01:13:53;;;;;;;5.50;4.73;;;;;;;12.36;84.60;100065.25;5132068;27;20564;-57
2022/10/08 01:16:31;;;;;;;5.80;5.10;;;;;;;12.39;84.71;100068.66;5131673;27;20199;-57
2022/10/08 01:19:09;;;;;;;5.47;4.97;;;;;;;12.42;84.35;100052.94;5131298;27;20202;-56
2022/10/08 01:21:43;;;;;;;9.30;5.13;;;;;;;12.28;84.70;100046.38;5131424;27;20228;-55
2022/10/08 01:25:31;;;;;;;7.83;4.87;;;;;;;12.45;84.36;100053.72;5131248;27;20202;-52
2022/10/08 01:27:20;;;;;;;5.80;4.60;;;;;;;12.51;83.64;100052.69;5130991;27;20210;-53
2022/10/08 01:29:49;;;;;;;5.57;5.07;;;;;;;12.52;83.62;100049.19;5131179;27;20258;-52
2022/10/08 01:32:21;;;;;;;4.57;4.10;;;;;;;12.53;83.40;100049.13;5131548;27;20620;-53
2022/10/08 01:34:53;;;;;;;4.67;4.27;;;;;;;12.56;82.90;100053.41;5131381;27;20220;-52
2022/10/08 01:37:27;;;;;;;4.77;4.30;;;;;;;12.62;82.60;100040.22;5131280;27;20205;-52
2022/10/08 01:39:57;;;;;;;6.90;4.70;;;;;;;12.68;82.30;100048.72;5131037;27;20197;-52
2022/10/08 01:42:27;;;;;;;8.83;4.83;;;;;;;12.69;82.17;100052.16;5131264;27;20301;-51
2022/10/08 01:44:58;;;;;;;5.73;4.60;;;;;;;12.77;81.84;100046.72;5131119;27;20221;-53
2022/10/08 01:47:29;;;;;;;6.80;4.40;;;;;;;12.70;82.13;100043.47;5131090;27;20201;-53
2022/10/08 01:50:01;;;;;;;5.83;4.80;;;;;;;12.58;82.76;100042.06;5130789;27;20206;-58
2022/10/08 01:52:32;;;;;;;6.97;4.23;;;;;;;12.56;83.35;100045.59;5130903;27;20201;-57
2022/10/08 01:55:04;;;;;;;5.60;4.57;;;;;;;12.47;83.69;100044.09;5130638;27;20202;-57
2022/10/08 01:57:33;;;;;;;8.27;5.07;;;;;;;12.32;83.98;100027.16;5130805;27;20198;-53
2022/10/08 02:00:04;;;;;;;5.20;4.70;;;;;;;12.46;83.93;100041.53;5130731;27;20289;-53
2022/10/08 02:02:31;;;;;;;5.20;4.63;;;;;;;12.46;84.15;100045.00;5129818;27;20228;-53
2022/10/08 02:04:58;;;;;;;5.77;4.30;;;;;;;12.30;84.86;100054.16;5130536;27;20194;-57
2022/10/08 02:07:27;;;;;;;8.00;4.77;;;;;;;12.31;84.93;100048.88;5130556;27;20210;-57
2022/10/08 02:10:05;;;;;;;7.57;4.50;;;;;;;12.30;85.13;100038.53;5130357;27;20198;-57
2022/10/08 02:12:34;;;;;;;4.83;4.43;;;;;;;12.34;84.76;100034.94;5130485;27;20197;-52
2022/10/08 02:15:03;;;;;;;4.70;4.30;;;;;;;12.44;84.44;100051.16;5130216;27;20196;-53
2022/10/08 02:17:40;;;;;;;4.67;4.07;;;;;;;12.51;83.88;100050.94;5130645;27;20254;-52
2022/10/08 02:20:16;;;;;;;5.33;4.83;;;;;;;12.55;83.93;100056.91;5130273;27;20201;-52
2022/10/08 02:22:52;;;;;;;5.27;3.70;;;;;;;12.41;84.88;100051.25;5130254;27;20312;-52
2022/10/08 02:25:27;;;;;;;5.77;4.37;;;;;;;12.20;85.41;100032.69;5130398;27;20201;-52
2022/10/08 02:28:03;;;;;;;5.03;4.00;;;;;;;12.34;85.51;100053.16;5130137;27;20185;-58
2022/10/08 02:30:37;;;;;;;6.23;4.60;;;;;;;12.38;85.07;100043.53;5130067;27;20837;-58
2022/10/08 02:33:11;;;;;;;9.40;4.33;;;;;;;12.38;84.95;100044.38;5130122;27;20193;-57
2022/10/08 02:35:43;;;;;;;5.70;3.93;;;;;;;12.31;85.67;100048.88;5130295;27;20220;-57
2022/10/08 02:38:17;;;;;;;5.10;4.47;;;;;;;12.27;85.65;100036.84;5129968;27;20590;-52
2022/10/08 02:40:49;;;;;;;5.43;4.10;;;;;;;12.25;85.67;100033.44;5130203;27;20190;-52
2022/10/08 02:43:21;;;;;;;4.63;4.20;;;;;;;12.26;85.45;100045.56;5130251;27;20586;-53
2022/10/08 02:45:55;;;;;;;5.77;4.60;;;;;;;12.21;85.52;100042.22;5130780;28;20194;-52
2022/10/08 02:48:28;;;;;;;9.30;4.20;;;;;;;12.19;85.80;100041.41;5130289;28;20295;-58
2022/10/08 02:51:00;;;;;;;6.70;4.57;;;;;;;12.20;85.60;100040.50;5130020;28;20198;-58
2022/10/08 02:53:28;;;;;;;5.60;4.67;;;;;;;12.21;85.83;100046.56;5130030;28;20198;-56
2022/10/08 02:56:05;;;;;;;12.03;4.70;;;;;;;12.23;85.77;100042.19;5129936;28;20194;-57
2022/10/08 02:58:34;;;;;;;4.37;4.07;;;;;;;12.24;85.79;100049.09;5129976;28;20643;-56
2022/10/08 03:01:08;;;;;;;4.90;4.50;;;;;;;12.19;85.95;100043.19;5129634;28;20284;-57
2022/10/08 03:03:41;;;;;;;4.83;4.40;;;;;;;12.18;86.02;100050.13;5129963;28;20201;-57
2022/10/08 03:06:11;;;;;;;4.47;4.17;;;;;;;12.17;86.08;100053.63;5130250;28;20224;-53
2022/10/08 03:08:41;;;;;;;6.17;4.67;;;;;;;12.07;86.77;100046.97;5129888;28;20200;-57
2022/10/08 03:11:09;;;;;;;7.90;4.20;;;;;;;12.00;88.03;100050.59;5129706;28;20196;-57
2022/10/08 03:13:41;;;;;;;6.30;4.17;;;;;;;11.98;88.08;100047.16;5130323;27;20202;-52
2022/10/08 03:16:13;;;;;;;6.70;4.73;;;;;;;11.96;88.45;100044.59;5133711;27;20186;-53
2022/10/08 03:18:41;;;;;;;12.27;4.87;;;;;;;11.79;88.10;100013.00;5133958;27;20233;-58
2022/10/08 03:21:10;;;;;;;6.23;4.47;;;;;;;11.94;88.65;100040.38;5133759;27;20587;-56
2022/10/08 03:23:37;;;;;;;7.33;5.33;;;;;;;11.88;89.48;100050.91;5133941;27;20574;-55
2022/10/08 03:26:04;;;;;;;8.97;4.93;;;;;;;11.79;89.87;100041.59;5133493;27;20235;-56
2022/10/08 03:28:31;;;;;;;7.70;5.63;;;;;;;11.74;90.99;100053.00;5133526;27;20237;-53
2022/10/08 03:31:04;;;;;;;5.03;4.73;;;;;;;11.73;90.46;100039.13;5133493;27;20196;-57
2022/10/08 03:33:31;;;;;;;8.97;4.97;;;;;;;11.57;91.42;100023.06;5133686;27;20592;-57
2022/10/08 03:35:59;;;;;;;6.50;4.70;;;;;;;11.57;92.04;100036.06;5133448;27;20197;-57
2022/10/08 03:38:26;;;;;;;9.70;4.57;;;;;;;11.61;91.98;100039.44;5133486;27;20201;-59
2022/10/08 03:40:58;;;;;;;8.77;4.70;;;;;;;11.64;91.64;100036.75;5133846;27;20585;-58
2022/10/08 03:43:30;;;;;;;9.07;4.70;;;;;;;11.61;91.21;100032.50;5133498;27;20190;-57
2022/10/08 03:45:57;;;;;;;6.43;5.10;;;;;;;11.55;91.60;100022.22;5133185;27;20197;-56
2022/10/08 03:48:25;;;;;;;5.37;4.47;;;;;;;11.51;92.30;100019.75;5133733;27;20201;-53
2022/10/08 03:50:53;;;;;;;5.13;4.10;;;;;;;11.49;92.34;100018.94;5133322;27;20198;-52
2022/10/08 03:53:20;;;;;;;7.83;5.00;;;;;;;11.50;92.00;100028.44;5133181;27;20200;-52
2022/10/08 03:55:47;;;;;;;4.70;4.27;;;;;;;11.49;92.02;100022.38;5133273;27;20199;-54
2022/10/08 03:58:14;;;;;;;5.73;4.43;;;;;;;11.51;91.55;100023.19;5133068;27;20729;-51
2022/10/08 04:00:41;;;;;;;4.63;4.33;;;;;;;11.47;91.67;100026.78;5132924;27;20194;-51
2022/10/08 04:03:09;;;;;;;5.70;4.50;;;;;;;11.44;91.83;100029.44;5132674;27;20214;-51
2022/10/08 04:05:37;;;;;;;10.77;4.40;;;;;;;11.50;91.39;100031.03;5132971;27;20213;-51
2022/10/08 04:08:04;;;;;;;9.70;4.63;;;;;;;11.51;91.49;100024.97;5132446;27;20216;-58
2022/10/08 04:10:31;;;;;;;4.77;4.37;;;;;;;11.58;90.27;100014.38;5129525;27;20198;-57
2022/10/08 04:12:57;;;;;;;4.70;4.30;;;;;;;11.77;89.39;100022.56;5132826;27;20196;-53
2022/10/08 04:15:24;;;;;;;5.37;4.60;;;;;;;11.77;88.94;100019.97;5132924;27;20204;-53
2022/10/08 04:17:51;;;;;;;10.77;4.37;;;;;;;11.71;88.77;100022.72;5132815;27;20208;-52
2022/10/08 04:20:18;;;;;;;4.83;4.33;;;;;;;11.69;88.52;100018.44;5131740;27;20204;-53
2022/10/08 04:22:47;;;;;;;5.57;4.13;;;;;;;11.65;88.32;100013.31;5132202;27;20305;-53
2022/10/08 04:25:14;;;;;;;4.93;4.43;;;;;;;11.67;88.45;100012.41;5131443;27;20281;-57
2022/10/08 04:27:41;;;;;;;7.83;4.60;;;;;;;11.58;88.74;100016.09;5131647;27;20198;-57
2022/10/08 04:30:09;;;;;;;6.73;4.83;;;;;;;11.62;88.73;100020.34;5132270;27;20229;-57
2022/10/08 04:32:36;;;;;;;7.30;4.70;;;;;;;11.67;88.32;100015.00;5132233;27;20198;-57
2022/10/08 04:35:03;;;;;;;5.43;4.90;;;;;;;11.65;88.63;100017.66;5132434;27;20198;-58
2022/10/08 04:37:30;;;;;;;6.83;5.63;;;;;;;11.55;89.20;100009.22;5132369;27;20202;-52
2022/10/08 04:39:58;;;;;;;5.77;5.20;;;;;;;11.52;89.53;100011.03;5132282;27;20696;-53
2022/10/08 04:42:25;;;;;;;10.87;5.50;;;;;;;11.52;89.29;100014.50;5132488;27;20368;-58
2022/10/08 04:44:52;;;;;;;6.93;5.43;;;;;;;11.49;89.68;100008.53;5132136;27;20204;-59
2022/10/08 04:47:19;;;;;;;8.07;6.00;;;;;;;11.47;89.65;100010.31;5131934;27;20198;-58
2022/10/08 04:49:46;;;;;;;6.30;5.70;;;;;;;11.45;89.79;100004.28;5132193;27;20208;-53
2022/10/08 04:52:15;;;;;;;9.80;5.80;;;;;;;11.45;89.31;100010.34;5132185;27;20743;-52
2022/10/08 04:54:42;;;;;;;9.97;4.97;;;;;;;11.39;88.53;99994.91;5132295;27;20198;-53
2022/10/08 04:57:10;;;;;;;6.40;5.20;;;;;;;11.38;87.56;99979.34;5131980;27;20192;-59
2022/10/08 04:59:38;;;;;;;9.43;5.20;;;;;;;11.54;87.53;100004.06;5131456;27;20193;-58
2022/10/08 05:02:04;;;;;;;5.97;5.20;;;;;;;11.54;87.16;100002.31;5131169;27;20214;-58
2022/10/08 05:04:31;;;;;;;7.13;5.30;;;;;;;11.57;87.14;100004.84;5131385;27;20194;-58
2022/10/08 05:06:58;;;;;;;8.13;5.47;;;;;;;11.69;86.40;100008.88;5128709;27;20193;-59
2022/10/08 05:09:25;;;;;;;7.20;5.07;;;;;;;11.72;85.74;100008.81;5131288;27;20186;-53
2022/10/08 05:11:52;;;;;;;6.60;4.53;;;;;;;11.75;85.53;100015.66;5131323;27;20294;-52
2022/10/08 05:14:20;;;;;;;7.83;5.10;;;;;;;11.74;85.88;100017.41;5131304;27;20224;-53
2022/10/08 05:16:48;;;;;;;5.13;4.60;;;;;;;11.93;84.67;100018.69;5131867;27;20589;-53
2022/10/08 05:19:15;;;;;;;13.20;5.07;;;;;;;12.71;81.12;100013.91;5130243;27;20285;-52
2022/10/08 05:21:42;;;;;;;9.23;5.40;;;;;;;14.27;72.76;100028.81;5129719;27;20197;-54
2022/10/08 05:24:11;;;;;;;11.20;4.77;;;;;;;15.77;64.56;100003.81;5130439;27;20198;-53
2022/10/08 05:26:40;;;;;;;4.73;4.23;;;;;;;17.18;57.90;100032.41;5131041;27;20709;-53
2022/10/08 05:29:07;;;;;;;9.57;4.27;;;;;;;18.43;53.24;100038.34;5128326;27;20314;-53
2022/10/08 05:31:37;;;;;;;7.50;4.63;;;;;;;19.75;48.97;100039.88;5130964;27;20193;-53
2022/10/08 05:34:04;;;;;;;5.85;4.57;;;;;;;21.32;45.02;100046.94;5131221;27;20750;-54
2022/10/08 05:36:34;;;;;;;8.35;4.53;;;;;;;22.52;41.71;100045.91;5131530;27;20288;-53
2022/10/08 05:39:03;;;;;;;5.45;4.30;;;;;;;23.67;39.00;100055.28;5131260;27;20281;-54
2022/10/08 05:41:32;;;;;;;5.15;4.80;;;;;;;24.67;37.31;100057.34;5131075;27;20194;-53
2022/10/08 05:44:00;;;;;;;5.63;4.63;;;;;;;25.37;35.66;100057.03;5130711;27;20217;-59
2022/10/08 05:46:29;;;;;;;5.40;4.88;;;;;;;25.99;34.62;100057.16;5131091;27;20212;-59
2022/10/08 05:48:59;;;;;;;6.75;4.80;;;;;;;26.68;33.41;100063.63;5130995;27;20653;-58
2022/10/08 05:51:30;;;;;;;9.32;5.65;;;;;;;27.38;32.15;100072.59;5130944;27;20198;-53
2022/10/08 05:54:00;;;;;;;5.95;5.32;;;;;;;27.55;31.77;100073.72;5130502;27;20194;-53
2022/10/08 05:56:28;;;;;;;6.22;5.15;;;;;;;28.21;30.42;100063.25;5130862;27;20196;-53
2022/10/08 05:58:55;;;;;;;6.63;6.10;;;;;;;27.89;30.98;100074.19;5130855;27;20626;-53
2022/10/08 06:01:24;;;;;;;6.88;5.50;;;;;;;28.81;29.54;100077.97;5130792;27;20301;-53
2022/10/08 06:03:52;;;;;;;10.73;5.47;;;;;;;29.56;29.03;100075.06;5130575;27;20225;-55
2022/10/08 06:06:21;;;;;;;7.80;5.93;;;;;;;29.35;28.74;100070.91;5130656;27;20221;-56
2022/10/08 06:08:53;;;;;;;7.93;5.68;;;;;;;29.60;28.70;100067.53;5130588;27;20194;-54
2022/10/08 06:11:20;;;;;;;6.65;5.82;;;;;;;30.21;27.35;100081.00;5130432;27;20189;-54
2022/10/08 06:13:47;;;;;;;10.65;5.85;;;;;;;29.73;28.08;100073.34;5130427;27;20194;-60
2022/10/08 06:16:14;;;;;;;9.45;5.78;;;;;;;30.02;27.66;100083.03;5130438;27;20580;-61
2022/10/08 06:18:42;;;;;;;8.85;5.80;;;;;;;29.91;27.63;100081.41;5130361;27;20193;-61
2022/10/08 06:21:11;;;;;;;12.65;5.55;;;;;;;30.83;27.00;100086.22;5129826;27;20733;-62
2022/10/08 06:23:44;;;;;;;6.07;5.60;;;;;;;31.17;26.42;100083.56;5129583;27;20214;-61
2022/10/08 06:26:11;;;;;;;7.63;5.57;;;;;;;32.19;25.49;100094.84;5127897;27;20186;-53
2022/10/08 06:28:39;;;;;;;5.60;4.80;;;;;;;32.71;24.76;100087.22;5129606;27;20233;-62
2022/10/08 06:31:07;;;;;;;5.53;5.13;;;;;;;33.41;23.99;100092.66;5130139;27;20217;-62
2022/10/08 06:33:35;;;;;;;6.00;4.82;;;;;;;33.93;23.21;100091.16;5129875;27;20186;-62
2022/10/08 06:36:04;;;;;;;6.43;5.43;;;;;;;33.84;23.50;100087.69;5129720;27;20632;-62
2022/10/08 06:38:31;;;;;;;9.38;4.80;;;;;;;34.10;23.36;100089.97;5129664;27;20269;-62
2022/10/08 06:40:59;;;;;;;5.88;5.20;;;;;;;34.70;22.72;100100.72;5129606;27;20827;-61
2022/10/08 06:43:26;;;;;;;8.30;5.07;;;;;;;34.71;22.70;100098.84;5129455;27;20603;-54
2022/10/08 06:45:55;;;;;;;5.10;4.53;;;;;;;35.13;22.39;100093.63;5129484;28;20194;-54
2022/10/08 06:48:22;;;;;;;8.20;4.82;;;;;;;34.74;22.75;100093.94;5129508;27;20265;-62
2022/10/08 06:50:49;;;;;;;4.78;4.30;;;;;;;35.04;22.48;100085.84;5129530;28;20280;-54
2022/10/08 06:53:16;;;;;;;6.03;4.38;;;;;;;35.19;22.36;100076.72;5127236;28;20714;-55
2022/10/08 06:55:43;;;;;;;4.88;4.57;;;;;;;35.00;22.60;100068.34;5130125;28;20202;-55
2022/10/08 06:58:11;;;;;;;5.07;4.63;;;;;;;33.80;23.35;100084.50;5129933;28;20194;-54
2022/10/08 07:00:38;;;;;;;7.85;5.10;;;;;;;32.74;25.06;100075.28;5130051;28;20206;-63
2022/10/08 07:03:05;;;;;;;4.80;4.30;;;;;;;31.13;26.54;100066.13;5130116;28;20701;-62
2022/10/08 07:05:33;;;;;;;4.85;4.45;;;;;;;29.46;28.49;100068.91;5130062;28;20572;-63
2022/10/08 07:08:00;;;;;;;8.95;4.22;;;;;;;27.67;30.97;100054.81;5129722;28;20198;-62
2022/10/08 07:10:27;;;;;;;4.97;4.53;;;;;;;26.01;33.32;100060.56;5129812;28;20200;-62
2022/10/08 07:12:54;;;;;;;7.55;4.72;;;;;;;24.90;35.42;100062.53;5129753;28;20200;-54
2022/10/08 07:15:22;;;;;;;5.13;4.65;;;;;;;24.17;36.63;100062.06;5129378;28;20224;-53
2022/10/08 07:17:49;;;;;;;9.18;4.60;;;;;;;23.88;37.65;100056.31;5130258;28;20742;-54
2022/10/08 07:20:16;;;;;;;5.63;5.22;;;;;;;23.29;38.93;100060.69;5129908;28;20321;-52
2022/10/08 07:22:43;;;;;;;7.13;4.80;;;;;;;22.77;39.84;100062.63;5129923;28;20225;-53
2022/10/08 07:25:10;;;;;;;8.20;4.10;;;;;;;22.57;40.48;100054.38;5129681;28;20194;-53
2022/10/08 07:27:37;;;;;;;5.85;4.38;;;;;;;22.20;41.29;100050.78;5129830;28;20200;-53
2022/10/08 07:30:05;;;;;;;5.07;4.38;;;;;;;21.99;41.83;100042.50;5129296;28;20225;-54
2022/10/08 07:32:33;;;;;;;5.97;4.80;;;;;;;22.06;42.17;100039.34;5129863;28;20289;-53
2022/10/08 07:35:00;;;;;;;13.85;3.72;;;;;;;21.79;42.32;100021.78;5129636;28;20696;-60
2022/10/08 07:37:27;;;;;;;12.35;4.68;;;;;;;21.51;43.29;100028.09;5129452;28;20662;-59
2022/10/08 07:39:54;;;;;;;7.20;4.43;;;;;;;21.36;43.82;100032.56;5129791;28;20206;-59
2022/10/08 07:42:21;;;;;;;5.88;4.18;;;;;;;21.51;43.50;100031.56;5129248;28;20284;-53
2022/10/08 07:44:47;;;;;;;7.07;5.00;;;;;;;21.44;43.64;100024.16;5129782;28;20208;-54
2022/10/08 07:47:14;;;;;;;9.63;4.32;;;;;;;21.19;44.19;100025.75;5129409;28;20251;-52
2022/10/08 07:49:43;;;;;;;6.90;4.22;;;;;;;21.29;44.07;100016.28;5129707;28;20194;-53
2022/10/08 07:52:10;;;;;;;4.68;4.20;;;;;;;21.32;43.91;100024.00;5129567;28;20193;-53
2022/10/08 07:54:37;;;;;;;4.75;3.92;;;;;;;21.29;44.13;100023.34;5129347;28;20201;-53
2022/10/08 07:57:04;;;;;;;4.85;4.35;;;;;;;21.26;44.14;100028.81;5128565;28;20197;-60
2022/10/08 07:59:31;;;;;;;4.78;3.83;;;;;;;21.24;44.45;100022.78;5128458;27;20204;-60
2022/10/08 08:01:58;;;;;;;4.40;4.10;;;;;;;21.36;44.01;100028.13;5131761;27;20200;-53
2022/10/08 08:04:25;;;;;;;5.28;4.22;;;;;;;21.24;44.20;100018.34;5132949;27;20226;-52
2022/10/08 08:06:54;;;;;;;4.38;3.95;;;;;;;21.38;44.00;100020.97;5133008;27;20202;-59
2022/10/08 08:09:21;;;;;;;4.70;3.83;;;;;;;21.58;43.30;100024.94;5132688;27;20198;-59
2022/10/08 08:11:48;;;;;;;5.57;3.55;;;;;;;21.72;42.67;100022.22;5132845;27;20197;-60
2022/10/08 08:14:15;;;;;;;4.70;3.88;;;;;;;21.61;42.50;100015.97;5132601;27;20205;-59
2022/10/08 08:16:42;;;;;;;4.03;3.63;;;;;;;21.54;42.18;100020.81;5133005;27;20291;-53
2022/10/08 08:19:09;;;;;;;4.13;3.75;;;;;;;21.65;42.02;100013.03;5132270;27;20198;-59
2022/10/08 08:21:38;;;;;;;4.93;4.30;;;;;;;21.77;41.99;100005.22;5132678;27;20204;-60
2022/10/08 08:24:09;;;;;;;4.28;3.50;;;;;;;21.82;42.09;100003.94;5132197;27;20540;-59
2022/10/08 08:26:38;;;;;;;4.22;3.60;;;;;;;21.81;42.51;100007.53;5132715;27;20648;-58
2022/10/08 08:29:07;;;;;;;5.38;3.72;;;;;;;21.63;42.56;100014.91;5132416;27;20613;-60
2022/10/08 08:31:36;;;;;;;4.63;4.32;;;;;;;21.28;42.64;99997.91;5132588;27;20194;-60
2022/10/08 08:34:05;;;;;;;4.35;3.85;;;;;;;21.25;42.46;99979.59;5132435;27;20586;-60
2022/10/08 08:36:35;;;;;;;4.35;3.97;;;;;;;21.17;42.69;99997.72;5132182;27;20194;-59
2022/10/08 08:39:02;;;;;;;3.85;3.55;;;;;;;21.07;42.98;99970.22;5132216;27;20194;-54
2022/10/08 08:41:46;;;;;;;4.30;4.00;;;;;;;20.97;43.29;99983.16;5132181;27;20236;-53
2022/10/08 08:44:18;;;;;;;7.07;3.80;;;;;;;21.13;43.10;99993.56;5132106;27;20217;-53
2022/10/08 08:46:50;;;;;;;6.45;3.90;;;;;;;21.15;42.43;99991.69;5132169;27;20201;-52
2022/10/08 08:49:24;;;;;;;4.60;4.18;;;;;;;21.13;42.99;99983.00;5131906;27;20220;-55
2022/10/08 08:51:52;;;;;;;3.97;3.55;;;;;;;21.12;43.47;99983.94;5132036;27;20285;-53
2022/10/08 08:54:19;;;;;;;4.50;4.18;;;;;;;21.18;43.31;99978.28;5131893;27;20194;-59
2022/10/08 08:56:48;;;;;;;6.00;4.35;;;;;;;21.32;43.63;99983.56;5132078;27;20198;-59
2022/10/08 08:59:26;;;;;;;6.03;4.05;;;;;;;21.29;44.46;99984.59;5131886;27;20686;-60
2022/10/08 09:01:56;;;;;;;4.00;3.70;;;;;;;21.23;43.94;99979.69;5132051;27;20196;-53
2022/10/08 09:04:29;;;;;;;6.85;4.07;;;;;;;21.17;43.61;99982.72;5131684;27;20221;-59
2022/10/08 09:07:00;;;;;;;3.95;3.65;;;;;;;21.06;47.92;99965.88;5131819;27;20194;-60
2022/10/08 09:09:34;;;;;;;4.88;4.15;;;;;;;20.93;45.17;99960.53;5132146;27;20193;-59
2022/10/08 09:12:12;;;;;;;4.70;4.40;;;;;;;20.88;46.91;99963.47;5131740;27;20196;-59
2022/10/08 09:14:44;;;;;;;4.55;4.25;;;;;;;20.80;46.92;99957.84;5131654;27;20198;-53
2022/10/08 09:17:16;;;;;;;4.53;3.97;;;;;;;20.85;46.52;99955.78;5131642;27;20588;-52
2022/10/08 09:19:43;;;;;;;4.60;4.30;;;;;;;20.91;46.77;99946.59;5131595;27;20229;-52
2022/10/08 09:22:22;;;;;;;4.22;3.95;;;;;;;20.93;47.60;99931.53;5131378;27;20194;-52
2022/10/08 09:24:53;;;;;;;9.73;6.03;;;;;;;20.96;46.75;99942.72;5131513;27;20217;-52
2022/10/08 09:27:21;;;;;;;9.38;5.45;;;;;;;20.74;46.01;99918.69;5131568;27;20584;-54
2022/10/08 09:29:48;;;;;;;9.93;5.97;;;;;;;20.80;46.20;99933.25;5131388;27;20316;-52
2022/10/08 09:32:18;;;;;;;7.78;4.40;;;;;;;20.85;46.74;99928.53;5131409;27;20642;-52
2022/10/08 09:34:47;;;;;;;5.05;4.55;;;;;;;20.78;50.40;99917.50;5131109;27;20293;-60
2022/10/08 09:37:21;;;;;;;7.00;4.18;;;;;;;20.85;46.39;99926.75;5131374;27;20305;-53
2022/10/08 09:40:08;;;;;;;6.95;4.18;;;;;;;20.86;48.47;99909.97;5131521;27;20592;-61
2022/10/08 09:42:36;;;;;;;6.65;4.90;;;;;;;20.96;47.23;99918.97;5116613;27;20207;-59
2022/10/08 09:45:05;;;;;;;6.38;4.28;;;;;;;20.98;47.62;99910.97;5130834;27;20221;-53
2022/10/08 09:47:32;;;;;;;8.43;4.60;;;;;;;20.98;47.24;99906.53;5130982;27;20196;-53
2022/10/08 09:50:04;;;;;;;4.53;4.22;;;;;;;21.09;47.51;99897.91;5131087;27;20200;-59
2022/10/08 09:52:32;;;;;;;4.80;4.20;;;;;;;21.06;46.53;99906.03;5130916;27;20205;-58
2022/10/08 09:55:03;;;;;;;5.55;4.07;;;;;;;21.11;46.77;99900.44;5130943;27;20194;-53
2022/10/08 09:57:31;;;;;;;4.47;4.10;;;;;;;21.15;49.21;99891.38;5130932;27;20193;-53
2022/10/08 10:00:02;;;;;;;4.70;4.30;;;;;;;21.20;46.87;99889.31;5129382;27;20205;-51
2022/10/08 10:02:31;;;;;;;4.75;4.28;;;;;;;21.27;47.39;99883.50;5130943;27;20216;-52
2022/10/08 10:04:59;;;;;;;5.32;4.18;;;;;;;21.29;45.79;99886.06;5130767;27;20715;-55
2022/10/08 10:07:37;;;;;;;5.05;4.20;;;;;;;21.23;45.52;99878.53;5129989;27;20205;-55
2022/10/08 10:10:14;;;;;;;4.78;4.45;;;;;;;21.37;45.24;99875.81;5130633;27;20263;-54
2022/10/08 10:12:44;;;;;;;6.07;4.43;;;;;;;21.46;47.00;99872.53;5131062;27;20194;-55
2022/10/08 10:15:17;;;;;;;4.63;4.22;;;;;;;21.48;45.14;99868.00;5129915;27;20200;-55
2022/10/08 10:17:50;;;;;;;6.07;4.13;;;;;;;21.54;42.99;99867.59;5129626;27;20234;-56
2022/10/08 10:20:23;;;;;;;6.18;4.10;;;;;;;21.62;43.14;99862.63;5130039;27;20206;-54
2022/10/08 10:22:56;;;;;;;4.60;3.78;;;;;;;21.69;43.22;99855.97;5130193;27;20200;-57
2022/10/08 10:25:33;;;;;;;4.57;3.35;;;;;;;21.72;41.85;99844.34;5130054;27;20239;-54
2022/10/08 10:28:04;;;;;;;4.35;3.45;;;;;;;21.86;43.09;99843.38;5130754;27;20213;-55
2022/10/08 10:30:41;;;;;;;7.65;3.58;;;;;;;21.89;43.61;99837.91;5130141;27;20317;-55
2022/10/08 10:33:14;;;;;;;4.72;4.00;;;;;;;21.75;41.88;99820.34;5130227;27;20194;-54
2022/10/08 10:35:47;;;;;;;5.18;3.60;;;;;;;21.77;40.91;99815.81;5130272;27;20204;-56
2022/10/08 10:38:20;;;;;;;5.22;3.65;;;;;;;21.82;41.57;99824.25;5130065;27;20215;-56
2022/10/08 10:40:50;;;;;;;5.65;3.33;;;;;;;21.92;41.35;99817.34;5127991;27;20572;-57
2022/10/08 10:43:39;;;;;;;3.70;3.40;;;;;;;21.95;42.00;99818.94;5107429;28;20311;-57
2022/10/08 10:46:23;;;;;;;3.30;3.10;;;;;;;22.00;41.22;99809.78;5109775;28;20666;-58
2022/10/08 10:48:50;;;;;;;3.80;3.08;;;;;;;22.08;40.50;99806.59;5109236;28;20579;-57
2022/10/08 10:51:40;;;;;;;3.42;3.17;;;;;;;22.12;40.64;99799.28;5108627;28;20198;-56
2022/10/08 10:54:26;;;;;;;7.13;3.50;;;;;;;22.17;40.68;99800.63;5109372;28;20240;-58
2022/10/08 10:56:56;;;;;;;3.88;3.45;;;;;;;22.23;40.48;99802.00;5109528;28;20201;-60
2022/10/08 10:59:38;;;;;;;5.93;3.85;;;;;;;22.22;41.06;99793.22;5109180;28;20194;-60
2022/10/08 11:02:18;;;;;;;10.05;3.72;;;;;;;22.16;40.75;99779.59;5109021;28;20195;-61
2022/10/08 11:04:56;;;;;;;4.40;3.42;;;;;;;22.15;41.45;99778.75;5109270;28;20224;-60
2022/10/08 11:07:55;;;;;;;8.85;3.63;;;;;;;22.22;40.74;99780.00;5109553;28;20693;-60
2022/10/08 11:10:42;;;;;;;3.85;3.50;;;;;;;22.17;40.47;99778.63;5109768;28;20588;-59
2022/10/08 11:13:24;;;;;;;4.35;3.80;;;;;;;22.19;40.49;99774.09;5109297;28;20307;-60
2022/10/08 11:16:01;;;;;;;3.75;3.30;;;;;;;22.16;40.83;99775.16;5109277;28;20204;-60
2022/10/08 11:18:39;;;;;;;5.70;3.38;;;;;;;22.30;40.66;99772.34;5109713;28;20209;-60
2022/10/08 11:21:21;;;;;;;3.50;3.20;;;;;;;22.44;40.06;99766.91;5108974;28;20225;-61
2022/10/08 11:24:11;;;;;;;3.58;3.10;;;;;;;22.57;39.67;99766.00;5109365;28;20237;-60
2022/10/08 11:26:45;;;;;;;5.32;3.17;;;;;;;22.55;40.68;99754.69;5109366;28;20250;-59
2022/10/08 11:29:18;;;;;;;4.65;3.25;;;;;;;22.48;40.36;99754.28;5108974;28;20739;-60
2022/10/08 11:31:48;;;;;;;2.97;2.78;;;;;;;22.40;39.54;99740.78;5109530;28;20255;-61
2022/10/08 11:34:23;;;;;;;4.40;3.20;;;;;;;22.37;40.02;99741.84;5109406;28;20589;-59
2022/10/08 11:36:59;;;;;;;3.95;2.90;;;;;;;22.36;39.79;99745.44;5113019;28;20205;-60
2022/10/08 11:39:34;;;;;;;3.78;3.40;;;;;;;22.37;39.86;99731.25;5112922;28;20217;-61
2022/10/08 11:42:10;;;;;;;3.20;3.00;;;;;;;22.38;39.78;99725.00;5113427;28;20561;-60